Time;durP1;ratioP1;P1;durP2;ratioP2;P2;SDS_P1;SDS_P2;PMS_P1;PMS_P2;Temp;Humidity;BMP_temperature;BMP_pressure;BME280_temperature;BME280_humidity;BME280_pressure;Samples;Min_cycle;Max_cycle;Signal;HPM_P1;HPM_P2
2023/06/06 00:01:18;;;;;;;10.57;6.32;;;;;;;20.95;49.77;98475.78;5093175;28;20077;-46
2023/06/06 00:03:48;;;;;;;11.82;5.47;;;;;;;20.91;50.61;98474.75;5093108;28;20490;-46
2023/06/06 00:06:20;;;;;;;7.75;4.70;;;;;;;20.91;51.32;98477.41;5093042;28;20040;-46
2023/06/06 00:08:52;;;;;;;16.50;9.90;;;;;;;20.93;52.24;98475.25;5093041;28;20031;-46
2023/06/06 00:11:21;;;;;;;11.70;6.47;;;;;;;21.05;52.98;98463.50;5074685;28;20043;-46
2023/06/06 00:13:49;;;;;;;8.93;5.70;;;;;;;21.14;53.91;98467.16;5093173;28;20020;-46
2023/06/06 00:16:16;;;;;;;9.93;5.25;;;;;;;21.13;54.10;98468.25;5090241;28;20020;-46
2023/06/06 00:18:45;;;;;;;16.65;4.97;;;;;;;20.99;54.70;98461.88;5092782;28;20497;-45
2023/06/06 00:21:12;;;;;;;8.50;4.20;;;;;;;20.95;55.60;98462.44;5092950;28;20107;-45
2023/06/06 00:23:37;;;;;;;8.43;5.22;;;;;;;20.99;55.73;98472.56;5084766;28;20576;-45
2023/06/06 00:26:03;;;;;;;6.65;4.40;;;;;;;21.00;56.65;98458.94;5074467;28;20166;-45
2023/06/06 00:28:29;;;;;;;15.52;8.05;;;;;;;21.02;56.68;98466.69;5083554;28;20020;-46
2023/06/06 00:30:55;;;;;;;14.15;6.80;;;;;;;20.90;56.15;98465.13;5108319;28;20032;-45
2023/06/06 00:33:20;;;;;;;9.40;6.05;;;;;;;20.88;56.71;98466.47;5108257;28;20043;-46
2023/06/06 00:35:46;;;;;;;11.73;5.57;;;;;;;21.00;57.74;98466.16;5087263;28;20045;-46
2023/06/06 00:38:11;;;;;;;13.90;7.15;;;;;;;21.15;57.11;98463.44;5090532;28;20024;-46
2023/06/06 00:40:37;;;;;;;16.10;6.30;;;;;;;21.24;56.73;98460.97;5092427;28;20031;-46
2023/06/06 00:43:03;;;;;;;11.82;4.57;;;;;;;21.29;55.93;98464.41;5092434;28;20102;-46
2023/06/06 00:45:29;;;;;;;13.93;6.18;;;;;;;20.98;56.63;98469.09;5091965;28;20031;-46
2023/06/06 00:47:55;;;;;;;6.47;4.15;;;;;;;20.82;57.15;98470.25;5071137;28;20031;-46
2023/06/06 00:50:21;;;;;;;8.00;4.03;;;;;;;20.85;57.63;98473.16;5073611;28;20506;-45
2023/06/06 00:52:49;;;;;;;10.85;4.45;;;;;;;20.89;57.47;98466.22;5054114;28;20572;-45
2023/06/06 00:55:17;;;;;;;8.95;4.90;;;;;;;20.82;58.28;98471.03;5072717;28;20483;-45
2023/06/06 00:57:45;;;;;;;6.95;4.65;;;;;;;20.74;59.12;98475.06;5087406;28;20074;-45
2023/06/06 01:00:12;;;;;;;10.77;4.78;;;;;;;20.64;59.14;98468.97;5072128;28;20454;-46
2023/06/06 01:02:39;;;;;;;8.23;4.45;;;;;;;20.54;59.38;98470.56;5092128;28;20073;-45
2023/06/06 01:05:08;;;;;;;10.48;4.43;;;;;;;20.39;59.50;98472.47;5092299;28;20042;-45
2023/06/06 01:07:35;;;;;;;13.25;5.55;;;;;;;20.33;60.00;98475.13;5092054;28;20012;-45
2023/06/06 01:10:03;;;;;;;36.55;32.90;;;;;;;20.30;60.46;98465.03;5070715;28;20017;-46
2023/06/06 01:12:47;;;;;;;13.35;7.35;;;;;;;20.46;61.73;98468.44;5091992;28;20016;-45
2023/06/06 01:15:22;;;;;;;9.57;6.35;;;;;;;20.69;61.75;98466.28;5056919;28;20195;-45
2023/06/06 01:17:49;;;;;;;13.02;4.68;;;;;;;20.69;60.73;98474.28;5091944;28;20103;-46
2023/06/06 01:20:16;;;;;;;11.93;5.70;;;;;;;20.68;60.57;98470.81;5072455;28;20031;-45
2023/06/06 01:22:46;;;;;;;10.68;4.88;;;;;;;20.54;60.79;98469.75;5070485;28;20021;-45
2023/06/06 01:25:18;;;;;;;10.00;4.75;;;;;;;20.67;61.71;98471.88;5090274;28;20428;-45
2023/06/06 01:27:47;;;;;;;8.63;4.50;;;;;;;20.92;61.47;98468.31;5091763;28;20036;-46
2023/06/06 01:30:15;;;;;;;8.65;4.93;;;;;;;21.06;60.59;98470.41;5091679;28;20110;-46
2023/06/06 01:32:53;;;;;;;11.88;4.63;;;;;;;21.02;60.49;98478.16;5091798;28;20035;-45
2023/06/06 01:35:56;;;;;;;10.35;4.13;;;;;;;20.86;60.37;98472.06;5091510;28;20028;-46
2023/06/06 01:38:38;;;;;;;9.30;4.75;;;;;;;20.70;60.88;98471.34;5099576;28;20057;-45
2023/06/06 01:41:05;;;;;;;9.90;4.78;;;;;;;20.66;61.29;98477.50;5093799;28;20039;-45
2023/06/06 01:43:32;;;;;;;5.35;4.53;;;;;;;20.60;61.22;98471.38;5093760;28;20046;-45
2023/06/06 01:45:59;;;;;;;11.18;4.97;;;;;;;20.56;61.02;98475.63;5111907;28;20020;-45
2023/06/06 01:48:26;;;;;;;11.63;5.65;;;;;;;20.39;60.82;98475.13;5112000;28;20069;-46
2023/06/06 01:50:54;;;;;;;11.90;5.80;;;;;;;20.21;60.63;98476.50;5093704;28;20030;-45
2023/06/06 01:53:20;;;;;;;13.57;6.13;;;;;;;20.04;60.56;98482.91;5093927;28;20070;-45
2023/06/06 01:55:48;;;;;;;19.15;6.05;;;;;;;19.85;60.48;98484.50;5111827;28;20020;-45
2023/06/06 01:58:15;;;;;;;10.50;6.78;;;;;;;19.68;60.44;98479.38;5115702;28;20028;-45
2023/06/06 02:00:41;;;;;;;12.52;6.05;;;;;;;19.56;60.66;98487.63;5116178;28;20015;-46
2023/06/06 02:03:06;;;;;;;21.33;6.85;;;;;;;19.54;60.83;98492.41;5097559;28;20505;-45
2023/06/06 02:05:32;;;;;;;13.73;6.63;;;;;;;19.54;60.94;98487.09;5097665;28;20023;-45
2023/06/06 02:07:59;;;;;;;11.52;6.40;;;;;;;19.52;60.68;98482.03;5115811;28;20023;-45
2023/06/06 02:10:24;;;;;;;7.22;5.38;;;;;;;19.46;60.53;98485.75;5115955;28;20126;-45
2023/06/06 02:12:50;;;;;;;21.42;6.95;;;;;;;19.27;60.67;98488.09;5080505;28;20560;-45
2023/06/06 02:15:16;;;;;;;19.98;6.50;;;;;;;19.21;61.35;98489.13;5097449;28;20028;-45
2023/06/06 02:17:42;;;;;;;15.77;7.13;;;;;;;19.14;60.99;98492.03;5115528;28;20480;-45
2023/06/06 02:20:10;;;;;;;11.45;6.63;;;;;;;19.07;61.45;98496.78;5115534;28;20062;-45
2023/06/06 02:22:37;;;;;;;14.52;6.90;;;;;;;18.90;61.67;98502.31;5115407;28;20073;-45
2023/06/06 02:25:03;;;;;;;14.75;7.35;;;;;;;18.82;62.10;98499.38;5115395;28;20023;-45
2023/06/06 02:27:30;;;;;;;16.23;7.15;;;;;;;18.64;62.58;98497.91;5115278;28;20024;-45
2023/06/06 02:29:57;;;;;;;17.15;6.68;;;;;;;18.59;62.51;98498.66;5115365;28;20485;-45
2023/06/06 02:32:23;;;;;;;13.77;7.93;;;;;;;18.52;62.85;98503.41;5115285;28;20083;-45
2023/06/06 02:34:50;;;;;;;9.93;7.18;;;;;;;18.46;63.10;98507.88;5115185;28;20016;-45
2023/06/06 02:37:16;;;;;;;12.43;6.93;;;;;;;18.49;62.89;98503.91;5079152;28;20054;-46
2023/06/06 02:39:41;;;;;;;11.32;6.65;;;;;;;18.42;62.53;98504.16;5076475;28;20485;-45
2023/06/06 02:42:07;;;;;;;12.35;6.50;;;;;;;18.28;62.90;98505.66;5094736;28;20406;-45
2023/06/06 02:44:34;;;;;;;12.48;6.95;;;;;;;18.19;63.17;98509.81;5094712;28;20385;-45
2023/06/06 02:47:00;;;;;;;12.57;8.00;;;;;;;18.15;63.08;98513.00;5094656;28;20024;-45
2023/06/06 02:49:27;;;;;;;11.68;7.00;;;;;;;18.04;63.88;98507.84;5094671;28;20021;-45
2023/06/06 02:51:53;;;;;;;18.05;7.50;;;;;;;17.94;64.24;98508.56;5094514;28;20485;-45
2023/06/06 02:54:19;;;;;;;12.40;6.90;;;;;;;17.87;64.70;98510.63;5076395;28;20020;-45
2023/06/06 02:56:45;;;;;;;9.93;6.63;;;;;;;17.81;65.25;98507.09;5094474;28;20503;-45
2023/06/06 02:59:10;;;;;;;9.88;6.55;;;;;;;17.73;65.67;98512.88;5076146;28;20023;-45
2023/06/06 03:01:36;;;;;;;12.50;7.03;;;;;;;17.67;66.22;98514.66;5076127;28;20022;-45
2023/06/06 03:04:03;;;;;;;11.65;6.72;;;;;;;17.73;66.47;98508.34;5094356;28;20145;-45
2023/06/06 03:06:29;;;;;;;11.13;7.45;;;;;;;17.85;66.36;98497.63;5094218;28;20059;-45
2023/06/06 03:08:58;;;;;;;9.95;6.90;;;;;;;17.94;66.47;98514.66;5075815;28;20024;-45
2023/06/06 03:11:25;;;;;;;9.82;7.43;;;;;;;18.02;65.94;98499.34;5094167;28;20034;-45
2023/06/06 03:13:51;;;;;;;18.40;7.40;;;;;;;18.04;65.47;98511.31;5059555;28;20028;-45
2023/06/06 03:16:17;;;;;;;15.77;8.07;;;;;;;18.01;65.18;98511.00;5094088;28;20032;-45
2023/06/06 03:18:46;;;;;;;16.15;7.22;;;;;;;17.93;65.29;98517.59;5075782;28;20052;-45
2023/06/06 03:21:13;;;;;;;14.77;6.40;;;;;;;17.90;65.40;98520.75;5093857;28;20024;-45
2023/06/06 03:23:39;;;;;;;17.77;8.25;;;;;;;17.86;65.97;98519.66;5075764;28;20027;-45
2023/06/06 03:26:04;;;;;;;17.58;7.38;;;;;;;17.98;66.64;98522.94;5093911;28;20511;-45
2023/06/06 03:28:31;;;;;;;21.88;14.30;;;;;;;18.13;66.22;98515.09;5094105;28;20031;-45
2023/06/06 03:30:57;;;;;;;10.10;7.63;;;;;;;18.17;65.71;98513.53;5093768;28;20036;-45
2023/06/06 03:33:23;;;;;;;10.15;7.18;;;;;;;18.12;65.83;98518.00;5075563;28;20027;-45
2023/06/06 03:35:49;;;;;;;14.00;7.93;;;;;;;18.06;66.14;98514.50;5093477;28;20122;-45
2023/06/06 03:38:15;;;;;;;19.45;7.72;;;;;;;18.06;66.27;98511.84;5112521;28;20024;-45
2023/06/06 03:40:41;;;;;;;19.85;8.73;;;;;;;18.03;66.09;98525.66;5113993;28;20030;-45
2023/06/06 03:43:07;;;;;;;20.83;7.57;;;;;;;17.89;66.01;98521.81;5113855;28;20027;-45
2023/06/06 03:45:33;;;;;;;12.20;9.05;;;;;;;17.85;66.64;98510.88;5113830;28;20035;-45
2023/06/06 03:47:58;;;;;;;15.02;7.35;;;;;;;17.87;67.14;98523.91;5112537;28;20024;-45
2023/06/06 03:50:24;;;;;;;9.93;7.90;;;;;;;17.88;67.10;98520.97;5113773;28;20057;-45
2023/06/06 03:52:50;;;;;;;22.75;9.50;;;;;;;17.85;67.19;98526.81;5113684;28;20027;-45
2023/06/06 03:55:16;;;;;;;12.15;7.50;;;;;;;17.80;66.67;98526.72;5113577;28;20027;-45
2023/06/06 03:57:41;;;;;;;12.52;6.85;;;;;;;17.76;66.78;98525.63;5095466;28;20562;-45
2023/06/06 04:00:13;;;;;;;12.43;7.28;;;;;;;17.72;66.90;98527.19;5113606;28;20022;-45
2023/06/06 04:02:39;;;;;;;14.45;6.78;;;;;;;17.67;66.69;98522.63;5113501;28;20047;-45
2023/06/06 04:05:06;;;;;;;11.40;6.97;;;;;;;17.67;66.83;98521.84;5113413;28;20023;-45
2023/06/06 04:07:33;;;;;;;18.17;7.50;;;;;;;17.67;66.59;98527.94;5113369;28;20027;-45
2023/06/06 04:09:59;;;;;;;12.90;7.13;;;;;;;17.66;66.62;98530.84;5113350;28;20031;-45
2023/06/06 04:12:25;;;;;;;19.63;7.47;;;;;;;17.68;66.66;98534.03;5113271;28;20108;-45
2023/06/06 04:14:52;;;;;;;18.25;7.78;;;;;;;17.75;67.12;98539.97;5113378;28;20072;-45
2023/06/06 04:17:22;;;;;;;22.05;7.95;;;;;;;17.81;66.35;98538.13;5111872;28;20085;-45
2023/06/06 04:19:48;;;;;;;13.98;7.50;;;;;;;17.75;66.22;98538.09;5111481;28;20451;-45
2023/06/06 04:22:15;;;;;;;8.88;6.68;;;;;;;17.73;66.28;98537.56;5094908;28;20024;-45
2023/06/06 04:24:40;;;;;;;9.63;6.93;;;;;;;17.83;66.83;98538.69;5113086;28;20746;-45
2023/06/06 04:27:07;;;;;;;17.67;10.70;;;;;;;18.27;65.58;98538.56;5113073;28;20047;-45
2023/06/06 04:29:36;;;;;;;17.42;7.47;;;;;;;18.99;64.31;98549.69;5113278;28;20439;-45
2023/06/06 04:32:02;;;;;;;16.15;8.40;;;;;;;19.64;62.19;98547.53;5113149;28;20431;-45
2023/06/06 04:34:31;;;;;;;10.88;6.68;;;;;;;20.18;60.56;98551.63;5094713;28;20088;-45
2023/06/06 04:37:03;;;;;;;12.18;6.47;;;;;;;20.62;58.83;98553.75;5112579;28;20035;-45
2023/06/06 04:39:31;;;;;;;20.20;7.97;;;;;;;20.91;57.81;98545.97;5112831;28;20020;-45
2023/06/06 04:42:01;;;;;;;10.55;6.20;;;;;;;21.14;57.41;98556.03;5112702;28;20059;-45
2023/06/06 04:44:27;;;;;;;19.15;7.22;;;;;;;21.29;57.13;98551.72;5111494;28;20378;-45
2023/06/06 04:47:00;;;;;;;12.57;7.18;;;;;;;21.50;56.79;98544.41;5112790;28;20031;-45
2023/06/06 04:49:30;;;;;;;9.40;6.43;;;;;;;21.71;56.14;98553.09;5112714;28;20038;-46
2023/06/06 04:51:59;;;;;;;11.50;7.05;;;;;;;22.24;54.93;98545.28;5112885;28;20114;-45
2023/06/06 04:54:25;;;;;;;17.13;6.82;;;;;;;22.77;53.11;98541.84;5112610;28;20516;-45
2023/06/06 04:56:51;;;;;;;19.48;7.63;;;;;;;23.35;52.29;98550.84;5094613;28;20608;-46
2023/06/06 04:59:22;;;;;;;20.38;7.55;;;;;;;24.03;50.18;98547.78;5111178;28;20024;-46
2023/06/06 05:01:48;;;;;;;28.27;8.45;;;;;;;24.60;48.55;98553.00;5112523;28;20105;-46
2023/06/06 05:04:15;;;;;;;35.72;8.00;;;;;;;25.08;47.44;98544.59;5111433;28;20027;-46
2023/06/06 05:06:41;;;;;;;18.95;7.50;;;;;;;25.87;45.43;98539.97;5112381;28;20027;-46
2023/06/06 05:09:07;;;;;;;21.33;9.30;;;;;;;26.03;44.41;98545.81;5094125;28;20393;-45
2023/06/06 05:11:36;;;;;;;30.45;11.25;;;;;;;26.41;43.99;98543.53;5112384;28;20023;-46
2023/06/06 05:14:03;;;;;;;33.17;20.50;;;;;;;26.99;42.58;98539.06;5112370;28;20023;-45
2023/06/06 05:16:28;;;;;;;19.63;12.00;;;;;;;26.67;42.11;98542.91;5112180;28;20080;-46
2023/06/06 05:18:54;;;;;;;23.77;8.80;;;;;;;26.61;42.88;98549.53;5093920;28;20023;-46
2023/06/06 05:21:20;;;;;;;13.85;9.07;;;;;;;27.36;41.64;98542.31;5112255;28;20036;-46
2023/06/06 05:23:46;;;;;;;25.60;7.40;;;;;;;28.10;39.89;98546.03;5112251;28;20092;-45
2023/06/06 05:26:12;;;;;;;25.42;6.68;;;;;;;28.65;38.96;98548.00;5112156;28;20390;-46
2023/06/06 05:28:39;;;;;;;18.00;6.07;;;;;;;29.21;37.61;98539.00;5110893;28;20114;-45
2023/06/06 05:31:08;;;;;;;17.67;6.70;;;;;;;29.65;36.28;98545.69;5114033;28;20577;-46
2023/06/06 05:33:40;;;;;;;17.98;6.63;;;;;;;29.73;35.90;98546.00;5116453;28;20073;-46
2023/06/06 05:36:05;;;;;;;19.10;6.40;;;;;;;29.95;35.77;98548.34;5116145;28;20074;-46
2023/06/06 05:38:31;;;;;;;21.17;5.90;;;;;;;30.46;34.93;98546.28;5116259;28;20059;-45
2023/06/06 05:40:57;;;;;;;21.40;6.32;;;;;;;30.92;34.07;98540.78;5115281;28;20019;-46
2023/06/06 05:43:24;;;;;;;20.20;6.88;;;;;;;31.34;33.28;98542.47;5114934;28;20055;-46
2023/06/06 05:45:50;;;;;;;19.95;5.93;;;;;;;32.01;32.68;98540.91;5115084;28;20020;-46
2023/06/06 05:48:16;;;;;;;23.67;6.63;;;;;;;32.70;31.85;98540.78;5116191;28;20036;-46
2023/06/06 05:50:43;;;;;;;19.90;6.75;;;;;;;32.91;31.36;98539.72;5116124;28;20064;-46
2023/06/06 05:53:09;;;;;;;23.30;8.25;;;;;;;33.27;30.55;98538.63;5098051;28;20749;-46
2023/06/06 05:55:36;;;;;;;17.55;5.88;;;;;;;33.43;30.15;98544.78;5097936;28;20062;-46
2023/06/06 05:58:03;;;;;;;27.85;6.45;;;;;;;34.17;29.65;98541.25;5114881;28;20047;-46
2023/06/06 06:00:32;;;;;;;14.93;6.43;;;;;;;34.68;28.51;98542.91;5116219;28;20050;-46
2023/06/06 06:02:59;;;;;;;30.58;7.10;;;;;;;34.57;28.51;98541.91;5115805;28;20023;-46
2023/06/06 06:05:29;;;;;;;43.80;7.80;;;;;;;34.93;27.90;98540.59;5115718;28;20035;-46
2023/06/06 06:07:59;;;;;;;31.38;7.55;;;;;;;35.28;28.02;98544.22;5097446;28;20024;-46
2023/06/06 06:10:26;;;;;;;30.05;6.47;;;;;;;35.46;27.57;98536.28;5115636;28;20486;-46
2023/06/06 06:12:51;;;;;;;27.90;5.95;;;;;;;35.73;27.01;98551.44;5115630;28;20197;-46
2023/06/06 06:15:17;;;;;;;21.40;6.45;;;;;;;36.35;26.62;98545.50;5097594;28;20023;-46
2023/06/06 06:17:43;;;;;;;20.13;5.55;;;;;;;36.92;26.09;98542.47;5114281;28;20028;-46
2023/06/06 06:20:10;;;;;;;33.67;6.90;;;;;;;37.29;25.57;98549.75;5097340;28;20106;-44
2023/06/06 06:22:36;;;;;;;13.68;5.70;;;;;;;37.46;24.97;98553.75;5097504;28;20031;-44
2023/06/06 06:25:08;;;;;;;12.77;5.25;;;;;;;37.61;25.23;98553.84;5097390;28;20039;-44
2023/06/06 06:27:37;;;;;;;12.85;5.03;;;;;;;37.76;25.02;98547.25;5097624;28;20064;-44
2023/06/06 06:30:04;;;;;;;11.88;4.60;;;;;;;37.92;24.79;98555.91;5096990;28;20024;-45
2023/06/06 06:32:31;;;;;;;22.15;5.88;;;;;;;38.19;24.44;98552.84;5115236;28;20102;-45
2023/06/06 06:34:57;;;;;;;23.25;5.72;;;;;;;38.62;24.32;98552.94;5115289;28;20030;-45
2023/06/06 06:37:25;;;;;;;23.50;6.00;;;;;;;39.21;23.31;98551.69;5114920;28;20138;-47
2023/06/06 06:39:51;;;;;;;31.15;6.32;;;;;;;39.47;23.20;98554.00;5115092;28;20077;-47
2023/06/06 06:42:17;;;;;;;23.42;5.65;;;;;;;39.29;23.18;98548.53;5114685;28;20012;-47
2023/06/06 06:44:42;;;;;;;16.60;5.70;;;;;;;39.32;23.25;98550.50;5115076;28;20059;-47
2023/06/06 06:47:08;;;;;;;11.52;5.30;;;;;;;39.43;23.28;98550.47;5115337;28;20031;-47
2023/06/06 06:49:34;;;;;;;11.15;5.18;;;;;;;39.42;22.97;98548.94;5096941;28;20028;-47
2023/06/06 06:52:00;;;;;;;14.45;4.97;;;;;;;39.23;23.14;98557.59;5096832;28;20024;-47
2023/06/06 06:54:26;;;;;;;12.40;5.15;;;;;;;38.69;24.25;98552.91;5113596;28;20031;-47
2023/06/06 06:56:53;;;;;;;15.85;4.82;;;;;;;38.77;24.15;98550.97;5096514;28;20022;-47
2023/06/06 06:59:22;;;;;;;10.38;5.57;;;;;;;38.92;23.88;98554.47;5096718;28;20481;-47
2023/06/06 07:01:49;;;;;;;12.93;5.55;;;;;;;39.07;24.19;98558.00;5114955;28;20487;-47
2023/06/06 07:04:18;;;;;;;19.20;6.30;;;;;;;39.30;23.55;98544.63;5114984;28;20073;-47
2023/06/06 07:06:47;;;;;;;13.82;4.93;;;;;;;39.51;23.33;98551.25;5096254;28;20122;-47
2023/06/06 07:09:15;;;;;;;11.10;5.30;;;;;;;39.79;22.94;98552.31;5113204;28;20028;-47
2023/06/06 07:11:41;;;;;;;20.88;5.93;;;;;;;39.26;23.37;98545.78;5096453;28;20020;-47
2023/06/06 07:14:07;;;;;;;18.40;5.82;;;;;;;39.46;23.23;98544.22;5114560;28;20019;-47
2023/06/06 07:16:33;;;;;;;14.90;4.88;;;;;;;39.74;22.94;98545.25;5114526;28;20394;-47
2023/06/06 07:18:59;;;;;;;10.70;5.00;;;;;;;39.50;23.29;98547.72;5114586;28;20032;-47
2023/06/06 07:21:25;;;;;;;15.98;5.75;;;;;;;39.21;23.38;98552.47;5114649;28;20554;-47
2023/06/06 07:23:52;;;;;;;27.40;6.45;;;;;;;39.43;23.85;98550.47;5114245;28;20536;-47
2023/06/06 07:26:19;;;;;;;25.00;6.03;;;;;;;39.68;23.35;98552.34;5096300;28;20489;-47
2023/06/06 07:28:46;;;;;;;13.15;5.40;;;;;;;39.70;23.73;98555.47;5114226;28;20024;-47
2023/06/06 07:31:14;;;;;;;12.35;5.10;;;;;;;39.44;23.78;98548.50;5114442;28;20020;-47
2023/06/06 07:33:40;;;;;;;12.90;5.10;;;;;;;39.18;23.91;98555.22;5096100;28;20026;-47
2023/06/06 07:36:07;;;;;;;10.10;5.18;;;;;;;38.83;24.67;98559.59;5109172;28;20052;-47
2023/06/06 07:38:33;;;;;;;12.07;5.18;;;;;;;38.36;25.02;98565.03;5093628;28;20043;-47
2023/06/06 07:40:59;;;;;;;18.58;5.75;;;;;;;38.49;25.24;98557.97;5093626;28;20099;-47
2023/06/06 07:43:24;;;;;;;19.65;9.77;;;;;;;38.80;24.50;98552.94;5092349;28;20169;-47
2023/06/06 07:45:50;;;;;;;12.68;4.88;;;;;;;38.61;24.68;98554.09;5092246;28;20024;-47
2023/06/06 07:48:16;;;;;;;17.42;5.55;;;;;;;38.45;24.82;98553.69;5109182;28;20070;-47
2023/06/06 07:50:42;;;;;;;11.77;5.07;;;;;;;38.85;24.15;98558.00;5086022;28;20028;-47
2023/06/06 07:53:10;;;;;;;10.07;4.70;;;;;;;39.71;23.16;98551.56;5092064;28;20170;-47
2023/06/06 07:55:37;;;;;;;23.05;5.18;;;;;;;40.61;21.58;98548.25;5092478;28;20012;-47
2023/06/06 07:58:10;;;;;;;23.05;4.13;;;;;;;41.17;20.89;98542.63;5071946;28;20166;-47
2023/06/06 08:00:45;;;;;;;16.98;4.93;;;;;;;41.26;21.29;98543.75;5093472;28;20028;-47
2023/06/06 08:03:14;;;;;;;13.25;4.05;;;;;;;41.67;20.96;98539.34;5093159;28;20089;-47
2023/06/06 08:05:40;;;;;;;6.50;3.60;;;;;;;42.07;19.64;98532.09;5093088;28;20088;-49
2023/06/06 08:08:06;;;;;;;8.18;3.95;;;;;;;41.82;19.71;98537.19;5093097;28;20048;-49
2023/06/06 08:10:32;;;;;;;18.17;5.15;;;;;;;42.08;20.23;98524.63;5093020;28;20027;-50
2023/06/06 08:13:00;;;;;;;8.70;4.15;;;;;;;42.50;19.46;98531.47;5092985;28;20020;-50
2023/06/06 08:15:27;;;;;;;11.00;4.75;;;;;;;42.81;19.11;98530.53;5083330;28;20050;-49
2023/06/06 08:17:53;;;;;;;7.90;3.90;;;;;;;42.82;18.96;98532.06;5092797;28;20592;-50
2023/06/06 08:20:19;;;;;;;5.97;4.00;;;;;;;42.93;18.62;98529.94;5090653;28;20023;-50
2023/06/06 08:22:51;;;;;;;8.02;3.88;;;;;;;41.98;19.66;98544.81;5085761;28;20486;-50
2023/06/06 08:25:17;;;;;;;5.17;3.73;;;;;;;40.42;20.77;98536.63;5108821;28;20411;-49
2023/06/06 08:27:43;;;;;;;16.80;4.38;;;;;;;39.70;21.80;98537.03;5092588;28;20017;-49
2023/06/06 08:30:09;;;;;;;10.32;4.35;;;;;;;39.63;21.82;98536.28;5092638;28;20449;-50
2023/06/06 08:32:37;;;;;;;15.38;4.80;;;;;;;39.23;22.01;98535.63;5084239;28;20024;-50
2023/06/06 08:35:03;;;;;;;14.73;5.20;;;;;;;39.12;22.29;98525.44;5092570;28;20069;-50
2023/06/06 08:37:30;;;;;;;19.08;5.05;;;;;;;38.24;23.21;98530.56;5066402;28;20518;-50
2023/06/06 08:39:56;;;;;;;9.15;4.25;;;;;;;38.00;23.32;98536.75;5108668;28;20020;-49
2023/06/06 08:42:24;;;;;;;7.15;4.10;;;;;;;38.25;23.11;98532.09;5111788;28;20034;-49
2023/06/06 08:44:52;;;;;;;12.75;4.47;;;;;;;39.02;22.51;98539.19;5112764;28;20024;-49
2023/06/06 08:47:23;;;;;;;10.77;4.10;;;;;;;39.41;21.81;98530.06;5112682;28;20024;-50
2023/06/06 08:49:50;;;;;;;16.67;4.50;;;;;;;39.75;21.50;98531.09;5112764;28;20511;-50
2023/06/06 08:52:17;;;;;;;15.38;4.90;;;;;;;39.84;21.34;98527.91;5112660;28;20035;-49
2023/06/06 08:54:45;;;;;;;16.75;5.82;;;;;;;40.18;21.33;98532.84;5112589;28;20023;-50
2023/06/06 08:57:11;;;;;;;7.35;3.72;;;;;;;41.40;20.01;98525.50;5112565;28;20055;-50
2023/06/06 08:59:41;;;;;;;14.95;4.32;;;;;;;42.00;19.94;98529.44;5094446;28;20497;-50
2023/06/06 09:02:07;;;;;;;9.75;3.95;;;;;;;41.76;19.11;98525.84;5094178;28;20020;-50
2023/06/06 09:04:34;;;;;;;5.38;3.60;;;;;;;41.17;19.11;98526.09;5112396;28;20060;-50
2023/06/06 09:07:04;;;;;;;7.40;4.03;;;;;;;40.23;19.74;98532.41;5112083;28;20070;-49
2023/06/06 09:09:35;;;;;;;12.00;4.30;;;;;;;40.07;20.41;98527.41;5112298;28;20034;-49
2023/06/06 09:12:00;;;;;;;14.55;4.40;;;;;;;39.73;20.73;98527.97;5112399;28;20106;-50
2023/06/06 09:14:26;;;;;;;16.88;6.00;;;;;;;39.37;21.23;98523.81;5094330;28;20115;-49
2023/06/06 09:16:52;;;;;;;23.65;5.50;;;;;;;39.28;21.63;98524.22;5094276;28;20020;-50
2023/06/06 09:19:26;;;;;;;19.30;5.50;;;;;;;39.38;22.03;98517.91;5094109;28;20023;-50
2023/06/06 09:21:52;;;;;;;17.48;4.40;;;;;;;39.55;21.39;98528.06;5112266;28;20062;-50
2023/06/06 09:24:18;;;;;;;8.93;4.10;;;;;;;39.72;20.90;98522.88;5093898;28;20028;-50
2023/06/06 09:26:44;;;;;;;10.10;3.55;;;;;;;39.98;20.97;98526.31;5110844;28;20061;-50
2023/06/06 09:29:13;;;;;;;12.07;4.60;;;;;;;40.39;20.23;98529.19;5112168;28;20051;-49
2023/06/06 09:31:40;;;;;;;7.20;3.72;;;;;;;41.17;19.84;98515.09;5112080;28;20023;-50
2023/06/06 09:34:10;;;;;;;10.55;3.88;;;;;;;41.82;19.18;98518.66;5093761;28;20572;-50
2023/06/06 09:36:42;;;;;;;19.27;4.70;;;;;;;42.16;19.07;98512.28;5103707;28;20044;-50
2023/06/06 09:39:13;;;;;;;9.40;3.55;;;;;;;42.25;18.64;98515.28;5091640;28;20502;-50
2023/06/06 09:41:46;;;;;;;22.90;4.28;;;;;;;42.74;17.96;98514.09;5091695;28;20533;-50
2023/06/06 09:44:24;;;;;;;7.85;3.70;;;;;;;42.50;17.86;98519.63;5088963;28;20375;-50
2023/06/06 09:46:57;;;;;;;6.50;3.78;;;;;;;42.00;18.43;98509.31;5070141;28;20032;-50
2023/06/06 09:49:23;;;;;;;9.68;4.28;;;;;;;42.36;17.96;98504.09;5091377;28;20065;-50
2023/06/06 09:51:53;;;;;;;10.93;4.55;;;;;;;43.00;17.12;98499.41;5091490;28;20032;-50
2023/06/06 09:54:18;;;;;;;8.23;3.70;;;;;;;43.08;16.95;98500.06;5091507;28;20103;-50
2023/06/06 09:56:47;;;;;;;11.90;3.65;;;;;;;43.11;16.88;98503.97;5091497;28;20048;-50
2023/06/06 09:59:13;;;;;;;9.45;3.80;;;;;;;43.09;17.02;98498.88;5091430;28;20485;-49
2023/06/06 10:01:42;;;;;;;7.60;4.05;;;;;;;43.25;17.17;98489.88;5091441;28;20024;-50
2023/06/06 10:04:09;;;;;;;11.00;4.38;;;;;;;43.22;17.12;98496.22;5091514;28;20017;-50
2023/06/06 10:06:37;;;;;;;7.78;4.10;;;;;;;42.83;17.88;98492.25;5091423;28;20021;-50
2023/06/06 10:09:05;;;;;;;5.30;3.70;;;;;;;42.20;17.59;98499.22;5091436;28;20032;-50
2023/06/06 10:11:34;;;;;;;9.23;3.72;;;;;;;41.58;17.85;98497.72;5070106;28;20024;-50
2023/06/06 10:14:01;;;;;;;6.53;3.97;;;;;;;40.92;18.79;98500.41;5087888;28;20024;-50
2023/06/06 10:16:29;;;;;;;7.40;3.90;;;;;;;41.19;18.53;98497.00;5065112;28;20547;-50
2023/06/06 10:18:57;;;;;;;6.03;3.95;;;;;;;41.64;18.25;98504.34;5093115;28;20485;-50
2023/06/06 10:21:23;;;;;;;6.75;4.18;;;;;;;41.65;17.68;98490.13;5076966;28;20047;-50
2023/06/06 10:23:49;;;;;;;12.57;4.32;;;;;;;41.94;18.30;98494.44;5095120;28;20028;-50
2023/06/06 10:26:23;;;;;;;8.07;4.22;;;;;;;42.37;17.89;98489.06;5095250;28;20028;-50
2023/06/06 10:29:14;;;;;;;7.15;4.00;;;;;;;42.49;17.83;98474.69;5073491;28;20065;-50
2023/06/06 10:31:56;;;;;;;8.88;4.57;;;;;;;42.66;17.89;98477.56;5073427;28;20560;-50
2023/06/06 10:34:33;;;;;;;19.77;4.72;;;;;;;42.73;17.45;98479.41;5094412;28;20106;-50
2023/06/06 10:37:17;;;;;;;10.50;4.50;;;;;;;42.47;17.92;98484.59;5094682;28;20587;-50
2023/06/06 10:39:47;;;;;;;13.40;4.40;;;;;;;42.75;17.09;98488.06;5109054;28;20015;-50
2023/06/06 10:42:13;;;;;;;22.50;5.63;;;;;;;42.21;17.91;98486.19;5115066;28;20104;-50
2023/06/06 10:44:45;;;;;;;8.05;4.32;;;;;;;41.99;17.90;98482.97;5115127;28;20026;-50
2023/06/06 10:47:34;;;;;;;11.48;4.38;;;;;;;41.98;17.78;98475.88;5115290;28;20098;-50
2023/06/06 10:50:02;;;;;;;12.32;4.30;;;;;;;42.52;16.16;98477.81;5096706;28;20439;-50
2023/06/06 10:52:28;;;;;;;13.40;4.10;;;;;;;43.22;15.94;98474.91;5114891;28;20027;-50
2023/06/06 10:54:58;;;;;;;18.92;4.60;;;;;;;43.16;16.68;98473.84;5114915;28;20027;-50
2023/06/06 10:57:23;;;;;;;17.13;4.68;;;;;;;43.07;17.01;98468.91;5115061;28;20102;-50
2023/06/06 10:59:52;;;;;;;9.63;4.13;;;;;;;43.27;17.11;98470.91;5114713;28;20396;-50
2023/06/06 11:02:33;;;;;;;16.77;5.25;;;;;;;43.67;16.84;98465.34;5113713;28;20535;-50
2023/06/06 11:04:59;;;;;;;16.65;4.95;;;;;;;42.99;17.20;98469.50;5079535;28;20032;-50
2023/06/06 11:07:28;;;;;;;19.40;5.45;;;;;;;42.92;17.00;98469.63;5096362;28;20024;-50
2023/06/06 11:09:55;;;;;;;13.25;4.32;;;;;;;42.73;17.54;98465.63;5114961;28;20431;-50
2023/06/06 11:12:20;;;;;;;9.68;4.32;;;;;;;41.24;18.97;98473.75;5114591;28;20055;-50
2023/06/06 11:15:01;;;;;;;11.20;4.30;;;;;;;40.98;19.36;98475.97;5114506;28;20082;-50
2023/06/06 11:17:31;;;;;;;26.80;6.20;;;;;;;41.29;19.09;98463.06;5114535;28;20027;-50
2023/06/06 11:20:01;;;;;;;16.05;5.05;;;;;;;41.65;18.03;98464.56;5114382;28;20016;-50
2023/06/06 11:22:28;;;;;;;15.32;4.72;;;;;;;41.66;18.00;98466.91;5114406;28;20016;-50
2023/06/06 11:24:57;;;;;;;27.17;5.50;;;;;;;40.84;19.05;98460.41;5114288;28;20020;-50
2023/06/06 11:27:23;;;;;;;11.38;3.72;;;;;;;41.30;18.34;98456.34;5114191;28;20023;-50
2023/06/06 11:29:52;;;;;;;40.53;7.18;;;;;;;41.73;18.10;98455.00;5114125;28;20020;-50